createdAt,value
2018-03-09T00:00:06.963Z,18.13
2018-03-09T00:02:36.056Z,19.53
2018-03-09T00:05:05.232Z,19.60
2018-03-09T00:07:34.940Z,19.03
2018-03-09T00:10:04.026Z,20.17
2018-03-09T00:12:34.365Z,19.13
2018-03-09T00:15:03.468Z,19.67
2018-03-09T00:17:32.496Z,19.40
2018-03-09T00:20:01.689Z,18.77
2018-03-09T00:22:32.883Z,18.93
2018-03-09T00:25:02.195Z,19.53
2018-03-09T00:27:31.223Z,18.40
2018-03-09T00:30:00.320Z,18.93
2018-03-09T00:32:29.492Z,18.20
2018-03-09T00:34:58.591Z,17.93
2018-03-09T00:37:28.708Z,17.97
2018-03-09T00:39:58.441Z,17.30
2018-03-09T00:42:28.448Z,17.57
2018-03-09T00:44:57.436Z,16.93
2018-03-09T00:47:27.053Z,18.47
2018-03-09T00:50:12.716Z,17.17
2018-03-09T00:52:42.021Z,19.03
2018-03-09T00:55:11.596Z,16.13
2018-03-09T00:57:40.768Z,17.57
2018-03-09T01:00:09.864Z,17.80
2018-03-09T01:02:39.135Z,16.60
2018-03-09T01:05:09.111Z,16.83
2018-03-09T01:07:38.994Z,16.90
2018-03-09T01:10:08.000Z,15.40
2018-03-09T01:12:37.876Z,16.83
2018-03-09T01:15:07.759Z,16.40
2018-03-09T01:17:37.644Z,17.90
2018-03-09T01:20:06.908Z,16.83
2018-03-09T01:22:36.145Z,17.73
2018-03-09T01:25:05.140Z,15.93
2018-03-09T01:27:35.802Z,15.80
2018-03-09T01:30:05.680Z,15.70
2018-03-09T01:32:34.743Z,16.87
2018-03-09T01:35:04.160Z,17.70
2018-03-09T01:37:33.357Z,16.70
2018-03-09T01:40:03.331Z,16.50
2018-03-09T01:42:32.675Z,16.53
2018-03-09T01:45:02.674Z,15.73
2018-03-09T01:47:31.849Z,18.00
2018-03-09T01:50:01.326Z,17.10
2018-03-09T01:52:39.399Z,18.70
2018-03-09T01:55:08.609Z,18.57
2018-03-09T01:57:37.903Z,18.03
2018-03-09T02:00:06.940Z,19.00
2018-03-09T02:02:42.207Z,18.30
2018-03-09T02:05:11.171Z,17.30
2018-03-09T02:07:40.400Z,17.70
2018-03-09T02:10:10.465Z,17.53
2018-03-09T02:12:39.662Z,18.70
2018-03-09T02:15:08.788Z,17.20
2018-03-09T02:17:37.879Z,19.43
2018-03-09T02:20:08.069Z,19.33
2018-03-09T02:22:37.823Z,20.37
2018-03-09T02:25:06.881Z,19.03
2018-03-09T02:27:36.720Z,19.23
2018-03-09T02:30:06.105Z,20.23
2018-03-09T02:32:36.074Z,20.50
2018-03-09T02:35:05.960Z,17.80
2018-03-09T02:37:34.960Z,18.93
2018-03-09T02:40:04.031Z,17.93
2018-03-09T02:42:33.188Z,17.63
2018-03-09T02:45:03.028Z,20.23
2018-03-09T02:47:32.916Z,19.53
2018-03-09T02:50:01.928Z,19.33
2018-03-09T02:52:31.040Z,17.13
2018-03-09T02:55:00.884Z,19.70
2018-03-09T02:57:30.161Z,19.67
2018-03-09T02:59:59.164Z,19.43
2018-03-09T03:02:28.252Z,18.73
2018-03-09T03:04:57.479Z,18.50
2018-03-09T03:07:26.475Z,19.00
2018-03-09T03:09:55.477Z,18.00
2018-03-09T03:12:24.667Z,20.93
2018-03-09T03:14:53.663Z,19.90
2018-03-09T03:17:23.676Z,19.47
2018-03-09T03:19:52.956Z,17.70
2018-03-09T03:22:22.047Z,18.83
2018-03-09T03:24:51.960Z,19.07
2018-03-09T03:27:21.191Z,18.87
2018-03-09T03:29:50.365Z,18.67
2018-03-09T03:32:19.491Z,18.33
2018-03-09T03:34:48.560Z,17.17
2018-03-09T03:37:17.820Z,17.80
2018-03-09T03:39:46.787Z,18.70
2018-03-09T03:42:17.415Z,17.80
2018-03-09T03:44:46.412Z,18.50
2018-03-09T03:47:15.412Z,17.77
2018-03-09T03:49:44.535Z,18.97
2018-03-09T03:52:14.388Z,18.73
2018-03-09T03:54:43.612Z,19.50
2018-03-09T03:57:12.683Z,17.93
2018-03-09T03:59:42.860Z,18.50
2018-03-09T04:02:12.681Z,19.73
2018-03-09T04:04:42.528Z,21.43
2018-03-09T04:07:12.308Z,16.40
2018-03-09T04:09:42.464Z,18.77
2018-03-09T04:12:11.596Z,16.70
2018-03-09T04:14:40.883Z,18.17
2018-03-09T04:17:10.114Z,18.53
2018-03-09T04:19:39.980Z,18.63
2018-03-09T04:22:09.727Z,16.30
2018-03-09T04:24:38.856Z,16.80
2018-03-09T04:27:07.978Z,16.10
2018-03-09T04:29:37.024Z,19.00
2018-03-09T04:32:06.344Z,17.40
2018-03-09T04:34:35.543Z,16.70
2018-03-09T04:37:05.439Z,16.73
2018-03-09T04:39:34.571Z,15.80
2018-03-09T04:42:03.584Z,17.20
2018-03-09T04:44:32.591Z,16.47
2018-03-09T04:47:01.568Z,17.53
2018-03-09T04:49:30.836Z,15.77
2018-03-09T04:52:00.040Z,16.80
2018-03-09T04:54:29.154Z,16.03
2018-03-09T04:56:58.411Z,15.80
2018-03-09T04:59:27.504Z,16.10
2018-03-09T05:01:56.788Z,17.30
2018-03-09T05:04:25.875Z,17.67
2018-03-09T05:06:55.996Z,16.00
2018-03-09T05:09:25.019Z,18.30
2018-03-09T05:11:54.115Z,17.20
2018-03-09T05:14:23.392Z,16.70
2018-03-09T05:16:53.508Z,15.83
2018-03-09T05:19:22.636Z,16.17
2018-03-09T05:21:51.812Z,17.27
2018-03-09T05:24:21.042Z,16.80
2018-03-09T05:26:50.104Z,16.90
2018-03-09T05:29:19.386Z,17.53
2018-03-09T05:31:48.331Z,16.80
2018-03-09T05:34:18.344Z,15.47
2018-03-09T05:36:47.443Z,16.73
2018-03-09T05:39:16.716Z,14.53
2018-03-09T05:41:46.716Z,14.83
2018-03-09T05:44:16.033Z,15.60
2018-03-09T05:46:45.848Z,15.57
2018-03-09T05:49:16.680Z,16.00
2018-03-09T05:51:46.222Z,15.57
2018-03-09T05:54:15.500Z,14.73
2018-03-09T05:56:44.831Z,16.33
2018-03-09T05:59:14.716Z,15.60
2018-03-09T06:01:44.012Z,16.57
2018-03-09T06:04:13.765Z,15.97
2018-03-09T06:06:43.017Z,15.67
2018-03-09T06:09:12.848Z,17.60
2018-03-09T06:11:42.039Z,15.37
2018-03-09T06:14:12.016Z,16.10
2018-03-09T06:16:42.015Z,15.93
2018-03-09T06:19:11.072Z,14.50
2018-03-09T06:21:40.271Z,14.57
2018-03-09T06:24:09.608Z,16.00
2018-03-09T06:26:38.551Z,14.77
2018-03-09T06:29:07.565Z,14.83
2018-03-09T06:31:36.732Z,15.30
2018-03-09T06:34:05.829Z,17.17
2018-03-09T06:36:34.802Z,16.70
2018-03-09T06:39:04.179Z,17.27
2018-03-09T06:41:33.556Z,18.97
2018-03-09T06:44:03.376Z,17.77
2018-03-09T06:46:32.814Z,19.87
2018-03-09T06:49:02.616Z,17.27
2018-03-09T06:51:32.408Z,17.73
2018-03-09T06:54:01.868Z,16.50
2018-03-09T06:56:32.504Z,14.63
2018-03-09T06:59:03.576Z,14.27
2018-03-09T07:01:32.944Z,16.00
2018-03-09T07:04:02.832Z,15.30
2018-03-09T07:06:33.756Z,14.23
2018-03-09T07:09:02.914Z,15.20
2018-03-09T07:11:33.732Z,13.13
2018-03-09T07:14:04.720Z,13.77
2018-03-09T07:16:34.260Z,11.50
2018-03-09T07:19:04.192Z,10.80
2018-03-09T07:21:35.470Z,11.77
2018-03-09T07:24:07.105Z,11.87
2018-03-09T07:26:38.720Z,9.73
2018-03-09T07:29:08.416Z,10.67
2018-03-09T07:31:39.562Z,11.70
2018-03-09T07:34:09.160Z,11.50
2018-03-09T07:36:40.111Z,11.13
2018-03-09T07:39:10.216Z,11.13
2018-03-09T07:41:41.108Z,10.67
2018-03-09T07:44:12.212Z,11.13
2018-03-09T07:46:41.464Z,11.20
2018-03-09T07:49:13.067Z,10.97
2018-03-09T07:51:42.472Z,12.17
2018-03-09T07:54:12.872Z,11.63
2018-03-09T07:56:43.732Z,10.57
2018-03-09T07:59:15.133Z,11.07
2018-03-09T08:01:45.076Z,10.67
2018-03-09T08:04:15.688Z,10.67
2018-03-09T08:06:52.828Z,10.87
2018-03-09T08:09:22.908Z,10.27
2018-03-09T08:11:53.076Z,9.97
2018-03-09T08:14:22.884Z,10.50
2018-03-09T08:16:53.809Z,10.37
2018-03-09T08:19:24.663Z,10.53
2018-03-09T08:21:55.332Z,10.77
2018-03-09T08:24:26.268Z,11.60
2018-03-09T08:26:56.073Z,12.23
2018-03-09T08:29:28.075Z,10.37
2018-03-09T08:31:58.031Z,10.10
2018-03-09T08:34:28.481Z,11.00
2018-03-09T08:36:58.721Z,10.63
2018-03-09T08:39:29.369Z,10.77
2018-03-09T08:41:58.506Z,10.60
2018-03-09T08:44:30.009Z,11.03
2018-03-09T08:46:59.200Z,11.60
2018-03-09T08:49:28.616Z,10.60
2018-03-09T08:51:58.484Z,11.10
2018-03-09T08:54:28.032Z,11.23
2018-03-09T08:56:57.980Z,11.77
2018-03-09T08:59:28.121Z,10.30
2018-03-09T09:01:57.948Z,11.03
2018-03-09T09:04:28.136Z,9.70
2018-03-09T09:06:58.903Z,9.87
2018-03-09T09:09:29.488Z,10.00
2018-03-09T09:12:00.167Z,8.90
2018-03-09T09:14:31.005Z,10.20
2018-03-09T09:17:01.324Z,10.73
2018-03-09T09:19:32.197Z,11.20
2018-03-09T09:22:02.956Z,10.60
2018-03-09T09:24:34.014Z,10.43
2018-03-09T09:27:05.541Z,9.57
2018-03-09T09:29:36.393Z,10.67
2018-03-09T09:32:07.260Z,9.00
2018-03-09T09:34:36.760Z,10.40
2018-03-09T09:37:07.992Z,9.87
2018-03-09T09:39:37.952Z,10.20
2018-03-09T09:42:07.874Z,10.37
2018-03-09T09:44:39.016Z,10.13
2018-03-09T09:47:09.572Z,10.20
2018-03-09T09:49:39.236Z,10.27
2018-03-09T09:52:09.648Z,9.80
2018-03-09T09:54:40.112Z,9.37
2018-03-09T09:57:12.533Z,9.03
2018-03-09T09:59:43.154Z,10.27
2018-03-09T10:02:14.650Z,10.33
2018-03-09T10:04:44.304Z,10.47
2018-03-09T10:07:13.961Z,10.10
2018-03-09T10:09:44.212Z,10.87
2018-03-09T10:12:14.084Z,11.17
2018-03-09T10:14:44.124Z,9.13
2018-03-09T10:17:13.140Z,10.87
2018-03-09T10:19:42.128Z,10.60
2018-03-09T10:22:12.156Z,10.60
2018-03-09T10:24:41.256Z,10.43
2018-03-09T10:27:11.037Z,10.03
2018-03-09T10:29:40.907Z,10.60
2018-03-09T10:32:10.084Z,11.03
2018-03-09T10:34:39.285Z,11.60
2018-03-09T10:37:08.980Z,10.90
2018-03-09T10:39:38.136Z,11.77
2018-03-09T10:42:07.103Z,10.47
2018-03-09T10:44:36.188Z,10.63
2018-03-09T10:47:05.996Z,10.83
2018-03-09T10:49:35.116Z,11.00
2018-03-09T10:52:04.357Z,11.23
2018-03-09T10:54:33.388Z,11.43
2018-03-09T10:57:03.385Z,10.97
2018-03-09T10:59:32.700Z,11.50
2018-03-09T11:02:02.442Z,11.87
2018-03-09T11:04:31.703Z,12.53
2018-03-09T11:07:01.286Z,12.80
2018-03-09T11:09:30.381Z,13.60
2018-03-09T11:11:59.432Z,13.33
2018-03-09T11:14:28.802Z,14.27
2018-03-09T11:16:58.654Z,12.40
2018-03-09T11:19:27.769Z,13.40
2018-03-09T11:21:56.786Z,14.57
2018-03-09T11:24:26.285Z,12.53
2018-03-09T11:26:55.500Z,12.40
2018-03-09T11:29:24.698Z,13.30
2018-03-09T11:31:53.890Z,13.20
2018-03-09T11:34:23.177Z,12.07
2018-03-09T11:36:52.070Z,12.90
2018-03-09T11:39:21.365Z,13.73
2018-03-09T11:41:50.470Z,13.23
2018-03-09T11:44:19.568Z,12.80
2018-03-09T11:46:48.805Z,13.13
2018-03-09T11:49:18.698Z,12.60
2018-03-09T11:51:47.977Z,12.70
2018-03-09T11:54:17.925Z,14.07
2018-03-09T11:56:47.169Z,12.90
2018-03-09T11:59:16.311Z,13.40
2018-03-09T12:01:46.837Z,12.67
2018-03-09T12:04:16.126Z,12.40
2018-03-09T12:06:45.325Z,14.27
2018-03-09T12:09:14.465Z,15.47
2018-03-09T12:11:44.454Z,12.50
2018-03-09T12:14:14.262Z,14.20
2018-03-09T12:16:44.628Z,14.57
2018-03-09T12:19:14.805Z,14.40
2018-03-09T12:21:43.902Z,14.73
2018-03-09T12:24:13.058Z,14.33
2018-03-09T12:26:42.293Z,13.87
2018-03-09T12:29:11.578Z,14.07
2018-03-09T12:31:40.531Z,14.63
2018-03-09T12:34:09.773Z,14.23
2018-03-09T12:36:38.845Z,14.97
2018-03-09T12:39:08.805Z,15.50
2018-03-09T12:41:39.069Z,14.07
2018-03-09T12:44:08.026Z,14.37
2018-03-09T12:46:37.370Z,16.70
2018-03-09T12:49:12.420Z,17.57
2018-03-09T12:51:41.908Z,16.40
2018-03-09T12:54:11.388Z,16.77
2018-03-09T12:56:41.602Z,18.43
2018-03-09T12:59:10.818Z,16.27
2018-03-09T13:01:40.116Z,19.33
2018-03-09T13:04:09.100Z,16.40
2018-03-09T13:06:38.497Z,17.77
2018-03-09T13:09:07.945Z,18.20
2018-03-09T13:11:40.217Z,20.07
2018-03-09T13:14:19.232Z,19.50
2018-03-09T13:16:54.209Z,19.63
2018-03-09T13:19:25.545Z,20.77
2018-03-09T13:21:55.922Z,20.80
2018-03-09T13:24:25.163Z,17.63
2018-03-09T13:26:54.754Z,18.83
2018-03-09T13:29:28.633Z,18.63
2018-03-09T13:31:59.079Z,20.00
2018-03-09T13:34:28.388Z,16.70
2018-03-09T13:36:57.814Z,18.10
2018-03-09T13:39:26.982Z,18.50
2018-03-09T13:41:56.069Z,19.83
2018-03-09T13:44:25.166Z,18.13
2018-03-09T13:46:53.957Z,17.00
2018-03-09T13:49:23.253Z,19.13
2018-03-09T13:51:52.245Z,18.97
2018-03-09T13:54:21.446Z,19.17
2018-03-09T13:56:50.568Z,17.83
2018-03-09T13:59:19.741Z,19.70
2018-03-09T14:01:48.838Z,18.27
2018-03-09T14:04:17.937Z,20.00
2018-03-09T14:06:47.122Z,19.90
2018-03-09T14:09:16.079Z,20.17
2018-03-09T14:11:46.063Z,18.97
2018-03-09T14:14:15.526Z,19.93
2018-03-09T14:16:44.564Z,19.63
2018-03-09T14:19:14.053Z,20.27
2018-03-09T14:21:43.194Z,20.90
2018-03-09T14:24:12.042Z,20.77
2018-03-09T14:26:41.237Z,22.60
2018-03-09T14:29:10.282Z,24.93
2018-03-09T14:31:39.422Z,21.47
2018-03-09T14:34:08.546Z,23.53
2018-03-09T14:36:37.525Z,23.53
2018-03-09T14:39:06.667Z,23.60
2018-03-09T14:41:35.953Z,24.50
2018-03-09T14:44:05.051Z,23.20
2018-03-09T14:46:34.341Z,25.10
2018-03-09T14:49:03.442Z,26.33
2018-03-09T14:51:32.622Z,27.87
2018-03-09T14:54:01.968Z,27.30
2018-03-09T14:56:31.762Z,27.07
2018-03-09T14:59:00.946Z,28.57
2018-03-09T15:01:29.946Z,27.67
2018-03-09T15:03:59.187Z,30.83
2018-03-09T15:06:29.329Z,29.40
2018-03-09T15:08:58.421Z,31.50
2018-03-09T15:11:27.562Z,30.30
2018-03-09T15:13:56.553Z,31.00
2018-03-09T15:16:25.692Z,30.07
2018-03-09T15:18:55.701Z,30.23
2018-03-09T15:21:26.201Z,29.60
2018-03-09T15:23:55.290Z,29.70
2018-03-09T15:26:24.810Z,32.63
2018-03-09T15:28:54.009Z,31.00
2018-03-09T15:31:24.113Z,30.53
2018-03-09T15:33:53.594Z,30.27
2018-03-09T15:36:29.046Z,31.73
2018-03-09T15:38:58.133Z,34.33
2018-03-09T15:41:27.381Z,31.10
2018-03-09T15:43:56.457Z,28.87
2018-03-09T15:46:25.757Z,31.80
2018-03-09T15:48:54.854Z,32.77
2018-03-09T15:51:24.154Z,33.70
2018-03-09T15:53:53.192Z,32.93
2018-03-09T15:56:22.432Z,32.57
2018-03-09T15:58:51.561Z,33.03
2018-03-09T16:01:20.765Z,33.37
2018-03-09T16:03:49.860Z,33.30
2018-03-09T16:06:19.089Z,34.57
2018-03-09T16:08:49.061Z,36.30
2018-03-09T16:11:18.095Z,34.50
2018-03-09T16:13:47.173Z,34.67
2018-03-09T16:16:16.553Z,33.10
2018-03-09T16:18:45.742Z,34.87
2018-03-09T16:21:14.937Z,36.67
2018-03-09T16:23:44.009Z,34.53
2018-03-09T16:26:13.682Z,35.00
2018-03-09T16:28:42.857Z,35.90
2018-03-09T16:31:11.956Z,31.20
2018-03-09T16:33:40.950Z,33.13
2018-03-09T16:36:10.402Z,34.20
2018-03-09T16:38:40.285Z,35.83
2018-03-09T16:41:09.381Z,34.87
2018-03-09T16:43:38.882Z,37.10
2018-03-09T16:46:07.969Z,35.93
2018-03-09T16:48:37.278Z,37.40
2018-03-09T16:51:06.269Z,34.70
2018-03-09T16:53:35.556Z,37.63
2018-03-09T16:56:04.681Z,38.00
2018-03-09T16:58:33.705Z,36.13
2018-03-09T17:01:02.848Z,36.77
2018-03-09T17:03:31.982Z,39.83
2018-03-09T17:06:01.054Z,36.87
2018-03-09T17:08:30.258Z,38.43
2018-03-09T17:10:59.353Z,38.83
2018-03-09T17:13:28.492Z,41.20
2018-03-09T17:15:58.584Z,41.90
2018-03-09T17:18:27.870Z,41.20
2018-03-09T17:20:57.055Z,40.50
2018-03-09T17:23:26.061Z,41.93
2018-03-09T17:25:55.188Z,41.83
2018-03-09T17:28:24.173Z,39.07
2018-03-09T17:30:53.158Z,41.63
2018-03-09T17:33:22.240Z,42.47
2018-03-09T17:35:51.240Z,40.97
2018-03-09T17:38:20.542Z,41.90
2018-03-09T17:40:49.481Z,40.23
2018-03-09T17:43:19.357Z,38.33
2018-03-09T17:45:48.448Z,39.37
2018-03-09T17:48:18.441Z,39.90
2018-03-09T17:50:47.681Z,40.63
2018-03-09T17:53:17.073Z,42.73
2018-03-09T17:55:46.249Z,40.17
2018-03-09T17:58:15.387Z,46.10
2018-03-09T18:00:44.320Z,42.07
2018-03-09T18:03:13.342Z,40.60
2018-03-09T18:05:42.561Z,39.47
2018-03-09T18:08:11.491Z,39.90
2018-03-09T18:10:41.483Z,41.17
2018-03-09T18:13:10.537Z,44.87
2018-03-09T18:15:39.865Z,43.20
2018-03-09T18:18:09.065Z,41.40
2018-03-09T18:20:38.350Z,42.97
2018-03-09T18:23:07.367Z,43.40
2018-03-09T18:25:36.397Z,38.60
2018-03-09T18:28:05.538Z,41.10
2018-03-09T18:30:34.452Z,39.53
2018-03-09T18:33:03.666Z,39.17
2018-03-09T18:35:32.641Z,39.60
2018-03-09T18:38:01.770Z,37.80
2018-03-09T18:40:32.517Z,38.80
2018-03-09T18:43:01.962Z,42.67
2018-03-09T18:45:31.198Z,37.90
2018-03-09T18:48:00.480Z,39.23
2018-03-09T18:50:29.574Z,39.97
2018-03-09T18:52:58.764Z,39.17
2018-03-09T18:55:27.610Z,38.67
2018-03-09T18:57:56.606Z,36.57
2018-03-09T19:00:26.757Z,36.83
2018-03-09T19:02:56.101Z,37.37
2018-03-09T19:05:25.389Z,36.00
2018-03-09T19:07:54.588Z,37.67
2018-03-09T19:10:23.770Z,37.90
2018-03-09T19:12:52.734Z,35.37
2018-03-09T19:15:22.708Z,38.53
2018-03-09T19:17:52.509Z,34.70
2018-03-09T19:20:21.622Z,34.33
2018-03-09T19:22:50.601Z,35.80
2018-03-09T19:25:19.613Z,35.93
2018-03-09T19:27:48.637Z,36.10
2018-03-09T19:30:17.733Z,35.23
2018-03-09T19:32:47.829Z,36.07
2018-03-09T19:35:17.638Z,33.50
2018-03-09T19:37:46.937Z,31.80
2018-03-09T19:40:16.167Z,32.33
2018-03-09T19:42:45.349Z,30.20
2018-03-09T19:45:14.497Z,28.47
2018-03-09T19:47:43.725Z,29.70
2018-03-09T19:50:13.026Z,30.90
2018-03-09T19:52:42.062Z,30.90
2018-03-09T19:55:12.262Z,31.57
2018-03-09T19:57:41.545Z,30.40
2018-03-09T20:00:10.537Z,30.13
2018-03-09T20:02:39.776Z,31.00
2018-03-09T20:05:09.877Z,35.17
2018-03-09T20:07:38.963Z,33.40
2018-03-09T20:10:08.258Z,31.80
2018-03-09T20:12:37.360Z,32.97
2018-03-09T20:15:06.553Z,32.60
2018-03-09T20:17:35.794Z,34.67
2018-03-09T20:20:05.641Z,30.67
2018-03-09T20:22:34.882Z,28.17
2018-03-09T20:25:04.170Z,29.10
2018-03-09T20:27:33.061Z,28.33
2018-03-09T20:30:02.402Z,27.60
2018-03-09T20:32:32.305Z,28.70
2018-03-09T20:35:01.589Z,28.27
2018-03-09T20:37:31.238Z,28.73
2018-03-09T20:40:00.612Z,27.90
2018-03-09T20:42:30.713Z,28.60
2018-03-09T20:44:59.706Z,26.60
2018-03-09T20:47:28.737Z,29.70
2018-03-09T20:49:58.894Z,28.37
2018-03-09T20:52:28.785Z,26.50
2018-03-09T20:54:58.101Z,25.23
2018-03-09T20:57:27.851Z,25.67
2018-03-09T20:59:56.848Z,24.03
2018-03-09T21:02:25.976Z,25.27
2018-03-09T21:04:55.012Z,23.93
2018-03-09T21:07:23.988Z,23.93
2018-03-09T21:09:52.876Z,24.80
2018-03-09T21:12:21.958Z,25.90
2018-03-09T21:14:50.816Z,24.57
2018-03-09T21:17:19.910Z,23.20
2018-03-09T21:19:49.045Z,23.80
2018-03-09T21:22:18.068Z,27.40
2018-03-09T21:24:47.049Z,23.93
2018-03-09T21:27:16.986Z,23.23
2018-03-09T21:29:46.452Z,24.93
2018-03-09T21:32:15.419Z,24.67
2018-03-09T21:34:44.377Z,24.13
2018-03-09T21:37:14.490Z,25.03
2018-03-09T21:39:43.748Z,22.73
2018-03-09T21:42:12.792Z,22.63
2018-03-09T21:44:42.540Z,22.47
2018-03-09T21:47:11.636Z,25.60
2018-03-09T21:49:41.060Z,25.17
2018-03-09T21:52:10.329Z,24.07
2018-03-09T21:54:39.428Z,22.80
2018-03-09T21:57:08.708Z,22.43
2018-03-09T21:59:37.940Z,21.80
2018-03-09T22:02:06.928Z,21.77
2018-03-09T22:04:36.151Z,22.60
2018-03-09T22:07:06.009Z,22.40
2018-03-09T22:09:35.899Z,26.83
2018-03-09T22:12:05.947Z,137.60
2018-03-09T22:14:35.184Z,92.67
2018-03-09T22:17:04.416Z,68.73
2018-03-09T22:19:33.444Z,73.20
2018-03-09T22:22:02.541Z,91.40
2018-03-09T22:24:32.375Z,49.17
2018-03-09T22:27:01.664Z,37.47
2018-03-09T22:29:30.648Z,30.73
2018-03-09T22:31:59.984Z,30.13
2018-03-09T22:34:28.980Z,26.47
2018-03-09T22:36:57.979Z,27.73
2018-03-09T22:39:27.114Z,26.70
2018-03-09T22:41:56.987Z,22.87
2018-03-09T22:44:26.252Z,20.30
2018-03-09T22:46:55.252Z,19.60
2018-03-09T22:49:25.064Z,19.63
2018-03-09T22:51:54.104Z,21.07
2018-03-09T22:54:23.216Z,19.70
2018-03-09T22:56:53.175Z,21.40
2018-03-09T22:59:23.184Z,22.90
2018-03-09T23:01:52.284Z,20.63
2018-03-09T23:04:22.068Z,18.33
2018-03-09T23:06:52.119Z,20.20
2018-03-09T23:09:22.159Z,21.20
2018-03-09T23:11:51.336Z,20.57
2018-03-09T23:14:21.279Z,20.33
2018-03-09T23:16:52.459Z,22.50
2018-03-09T23:19:21.623Z,19.97
2018-03-09T23:21:50.620Z,18.60
2018-03-09T23:24:19.896Z,20.70
2018-03-09T23:26:49.196Z,20.27
2018-03-09T23:29:19.208Z,19.00
2018-03-09T23:31:48.443Z,19.80
2018-03-09T23:34:17.513Z,17.07
2018-03-09T23:36:46.814Z,16.73
2018-03-09T23:39:16.783Z,19.53
2018-03-09T23:41:46.612Z,17.37
2018-03-09T23:44:15.728Z,17.43
2018-03-09T23:46:45.656Z,18.03
2018-03-09T23:49:15.836Z,17.97
2018-03-09T23:51:45.528Z,18.50
2018-03-09T23:54:14.620Z,17.13
2018-03-09T23:56:43.612Z,15.57
2018-03-09T23:59:12.612Z,16.90
